Winters Aire Park Airport

CFY4 · Alberta, Canada

METAR history CFY4 · Winters Aire Park Airport

Below you see METARs of the last few days. Select a year to browse through older METARs, from the year 2007 onwards.

December 3, 2022

Time Code Weather Temp. Visibility Ceiling Wind METAR/SPECI
16:00
V
-9 °C 20 mi - 020° 020° 5 kt METAR CYYC 032300Z 02005KT 20SM FEW040 FEW250 M09/M18 A3000 RMK CF1CI1 CF TR CI TR SLP247
15:00
V
-7 °C 30 mi - 040° 040° 10 - 15 kt METAR CYYC 032200Z 04010G15KT 30SM FEW040 FEW250 M07/M16 A2998 RMK SC1CI1 SC TR CI TR SLP235
14:00
V
0 °C 40 mi - 290° 290° 17 - 22 kt METAR CYYC 032100Z 29017G22KT 40SM FEW060 FEW080 FEW250 M00/M15 A2994 RMK SC1AC1CI1 SC TR AC TR CI TR AC LENT SLP211
13:00
V
-1 °C 40 mi - 280° 280° 16 kt METAR CYYC 032000Z 28016KT 40SM FEW058 FEW250 M01/M15 A2993 RMK CF1CI1 CF TR CI TR SLP210
12:00
V
-1 °C 40 mi - 280° 280° 16 - 25 kt METAR CYYC 031900Z 28016G25KT 40SM FEW056 FEW080 FEW250 M01/M16 A2993 RMK SC1AC1CI1 SC TR AC TR SLP212
11:00
V
-3 °C 40 mi - 280° 280° 14 - 25 kt METAR CYYC 031800Z 28014G25KT 40SM FEW052 FEW250 M03/M16 A2992 RMK SC1CI1 SC TR CI TR SLP211
10:00
V
-4 °C 40 mi - 280° 280° 15 - 22 kt METAR CYYC 031700Z 28015G22KT 40SM FEW048 FEW250 M04/M16 A2992 RMK SC1CI1 SC TR CI TR CONTRAILS SLP210
09:00
V
-5 °C 40 mi - 270° 270° 14 - 19 kt METAR CYYC 031600Z 27014G19KT 40SM FEW044 FEW180 FEW250 M05/M17 A2990 RMK SC1AC1CI1 SC TR AC TR CONTRAILS SLP207
08:00
V
-8 °C 30 mi - 260° 260° 7 kt METAR CYYC 031500Z 26007KT 220V290 30SM FEW040 FEW180 FEW250 M08/M17 A2990 RMK CU1AC1CI2 CU TR AC TR SLP210
07:00
V
-16 °C 15 mi - 180° 180° 4 kt METAR CYYC 031400Z 18004KT 15SM SKC M16/M21 A2990 RMK SLP219
06:00
V
-19 °C 15 mi - 190° 190° 8 kt METAR CYYC 031300Z 19008KT 15SM SKC M19/M23 A2989 RMK FROIN SLP220
05:00
V
-17 °C 15 mi - 220° 220° 7 kt METAR CYYC 031200Z 22007KT 15SM FEW180 M17/M23 A2990 RMK AC1 AC TR FROIN SLP222
04:00
V
-18 °C 10 mi 18,000 ft 230° 230° 8 kt METAR CYYC 031100Z 23008KT 10SM FEW110 BKN180 M18/M23 A2991 RMK AC2AC3 SLP226
03:00
V
-18 °C 10 mi 19,000 ft 210° 210° 5 kt METAR CYYC 031000Z 21005KT 10SM SCT110 BKN190 M18/M23 A2992 RMK AC3AC3 SLP228
02:00
V
-17 °C 10 mi 15,000 ft 190° 190° 5 kt METAR CYYC 030900Z 19005KT 10SM SCT110 BKN150 BKN180 M17/M22 A2993 RMK AC4AC1AS1 SLP232
01:00
V
-18 °C 10 mi 15,000 ft 180° 180° 4 kt METAR CYYC 030800Z 18004KT 10SM SCT110 BKN150 BKN180 M18/M22 A2993 RMK AC3AC2AS1 AS TR SLP234
00:00
V
-18 °C 15 mi 15,000 ft 190° 190° 6 kt METAR CYYC 030700Z 19006KT 15SM FEW090 FEW130 BKN150 BKN210 M18/M23 A2994 RMK AC1AC2AC3CI1 AC TR CI TR SLP238

December 2, 2022

Time Code Weather Temp. Visibility Ceiling Wind METAR/SPECI
23:00
V
-18 °C 15 mi 15,000 ft 170° 170° 5 kt METAR CYYC 030600Z 17005KT 15SM FEW110 BKN150 BKN210 M18/M23 A2995 RMK AC2AC3CI1 CI TR SLP241
22:00
V
-18 °C 15 mi 18,000 ft 190° 190° 5 kt METAR CYYC 030500Z 19005KT 15SM SCT120 BKN180 M18/M23 A2996 RMK AC4AS2 SLP247
21:00
V
-17 °C 15 mi 13,000 ft 190° 190° 6 kt METAR CYYC 030400Z 19006KT 15SM BKN130 M17/M22 A2997 RMK AC6 SLP252
20:00
V
-17 °C 15 mi 17,000 ft 160° 160° 6 kt METAR CYYC 030300Z 16006KT 15SM SCT110 BKN170 M17/M22 A2998 RMK AC4AS3 SLP258
19:00
V
-17 °C 15 mi 13,000 ft 150° 150° 5 kt METAR CYYC 030200Z 15005KT 15SM OVC130 M17/M22 A2999 RMK AC8 SLP261
18:00
V
-17 °C 15 mi 14,000 ft 150° 150° 4 kt METAR CYYC 030100Z 15004KT 15SM OVC140 M17/M23 A3000 RMK AC8 SLP268
17:00
V
-17 °C 15 mi 25,000 ft 130° 130° 7 kt METAR CYYC 030000Z 13007KT 15SM SCT120 BKN250 M17/M22 A3000 RMK AC3CI4 CONTRAILS SLP266
16:00
V
-16 °C 15 mi 10,000 ft 090° 090° 3 kt METAR CYYC 022300Z 09003KT 15SM BKN100 OVC250 M16/M23 A2999 RMK AC6CI2 AC LENT / CONTRAILS SLP262
15:00
V
-16 °C 20 mi 9,500 ft Var 000° 0 kt METAR CYYC 022200Z 00000KT 20SM SCT055 BKN095 OVC250 M16/M24 A2998 RMK SC4AC1CI3 SLP258
14:00
V
-16 °C 30 mi 25,000 ft Var 000° 0 kt METAR CYYC 022100Z 00000KT 30SM FEW052 FEW120 OVC250 M16/M23 A2997 RMK SC1AC1CI7 AC TR SLP255
13:00
V
-16 °C 30 mi 25,000 ft 200° 200° 3 kt METAR CYYC 022000Z 20003KT 30SM FEW054 FEW080 OVC250 M16/M24 A2998 RMK SC1AC1CS8 AC TR FAINT HALO SLP259
12:00
V
-17 °C 30 mi 25,000 ft 230° 230° 3 kt METAR CYYC 021900Z 23003KT 30SM FEW079 OVC250 M17/M23 A2997 RMK AC1CI8 AC TR CONTRAILS SLP256
11:00
V
-17 °C 40 mi 25,000 ft 330° 330° 9 kt METAR CYYC 021800Z 33009KT 40SM OVC250 M17/M24 A2998 RMK CI8 SLP259
10:00
V
-19 °C 40 mi 25,000 ft 320° 320° 7 kt METAR CYYC 021700Z 32007KT 40SM OVC250 M19/M25 A2996 RMK CI8 CONTRAILS SLP253
09:00
V
-21 °C 40 mi 25,000 ft 320° 320° 5 kt METAR CYYC 021600Z 32005KT 40SM OVC250 M21/M26 A2994 RMK CI8 CONTRAILS SLP249
08:00
V
-21 °C 20 mi - 300° 300° 4 kt METAR CYYC 021500Z 30004KT 20SM FEW250 M21/M26 A2991 RMK CI1 FROIN SLP241
07:00
V
-22 °C 15 mi - 310° 310° 3 kt METAR CYYC 021400Z 31003KT 15SM SKC M22/M26 A2989 RMK SLP235
06:00
V
-23 °C 15 mi - 320° 320° 4 kt METAR CYYC 021300Z 32004KT 15SM SKC M23/M27 A2987 RMK SLP230
05:00
V
-23 °C 15 mi - 340° 340° 5 kt METAR CYYC 021200Z 34005KT 15SM SKC M23/M27 A2984 RMK SLP218
04:00
V
-23 °C 15 mi - 320° 320° 3 kt METAR CYYC 021100Z 32003KT 15SM SKC M23/M27 A2982 RMK SLP212
03:00
V
-23 °C 15 mi - 330° 330° 4 kt METAR CYYC 021000Z 33004KT 320V090 15SM SKC M23/M27 A2981 RMK SLP204
02:00
V
-24 °C 15 mi - Var 000° 0 kt METAR CYYC 020900Z 00000KT 15SM SKC M24/M27 A2978 RMK SLP196
01:00
V
-23 °C 15 mi - 240° 240° 3 kt METAR CYYC 020800Z 24003KT 15SM SKC M23/M26 A2976 RMK SLP187
00:00
V
-22 °C 5 mi - 230° 230° 6 kt METAR CYYC 020700Z 23006KT 5SM BR FEW016 M22/M25 A2975 RMK SF1 SF TR SLP183

December 1, 2022

Time Code Weather Temp. Visibility Ceiling Wind METAR/SPECI
23:00
V
-22 °C 5 mi - 220° 220° 4 kt METAR CYYC 020600Z 22004KT 5SM BR FEW009 SCT053 M22/M25 A2973 RMK SF1SC2 SLP178
22:28
V
-23 °C 5 mi - 180° 180° 4 kt METAR CYYC 020528Z 18004KT 5SM BR FEW009 SCT054 M23/M25 A2972 RMK SF1SC2 SLP175
22:00
V
-22 °C 12 mi - Var Var 2 kt METAR CYYC 020500Z VRB02KT 12SM FEW014 FEW047 M22/M25 A2971 RMK CF1SC2 CF TR VIS SW 5 BR SLP169
21:00
V
-23 °C 10 mi - 300° 300° 4 kt METAR CYYC 020400Z 30004KT 10SM FEW007 SCT046 M23/M25 A2969 RMK SF2SC1 VIS S-W 5 BR SLP164
20:00
V
-23 °C 10 mi 5,400 ft 330° 330° 4 kt METAR CYYC 020300Z 33004KT 10SM VCSH SCT009 BKN054 M23/M26 A2968 RMK SC3SC2 SH S-W/VIS S-W 5 SLP160
19:54
V
-23 °C 10 mi 4,600 ft 340° 340° 4 kt METAR CYYC 020254Z 34004KT 10SM VCSH SCT010 BKN046 M23/M26 A2968 RMK SC3SC2 SH S-W/ VIS S-W 5 SLP160
19:29
V
-23 °C 10 mi 5,600 ft 030° 030° 3 kt METAR CYYC 020229Z CCA 03003KT 020V090 10SM VCSH SCT013 BKN056 M23/M27 A2968 RMK SC3SC3 SH SW-NW SLP160
19:00
V
-23 °C 15 mi 6,800 ft 020° 020° 3 kt METAR CYYC 020200Z 02003KT 15SM BKN068 M23/M27 A2968 RMK AC6 FROIN SLP160
18:00
V
-24 °C 15 mi - 020° 020° 5 kt METAR CYYC 020100Z 02005KT 240V030 15SM FEW025 M24/M28 A2966 RMK SC1 SLP153
17:00
V
-23 °C 15 mi - 010° 010° 6 kt METAR CYYC 020000Z 01006KT 15SM FEW025 M23/M27 A2963 RMK SC1 SLP143
16:00
V
-22 °C 15 mi - 020° 020° 6 kt METAR CYYC 012300Z 02006KT 15SM FEW025 M22/M26 A2963 RMK SC1 SLP141
15:00
V
-20 °C 15 mi - 080° 080° 4 kt METAR CYYC 012200Z 08004KT 350V100 15SM FEW025 M20/M26 A2962 RMK SC1 SLP134
14:00
V
-20 °C 15 mi - Var Var 2 kt METAR CYYC 012100Z VRB02KT 15SM FEW025 M20/M26 A2961 RMK SC1 SLP132
13:00
V
-20 °C 15 mi - 010° 010° 6 kt METAR CYYC 012000Z 01006KT 15SM FEW025 M20/M25 A2961 RMK SC1 PRESFR SLP129
12:00
V
-21 °C 15 mi - 040° 040° 4 kt METAR CYYC 011900Z 04004KT 15SM FEW025 M21/M26 A2964 RMK SC1 SLP141
11:00
V
-21 °C 20 mi - 010° 010° 9 kt METAR CYYC 011800Z 01009KT 20SM FEW028 FEW150 M21/M26 A2963 RMK SC1AC1 SLP139
10:00
V
-21 °C 9 mi - 010° 010° 8 kt METAR CYYC 011700Z 01008KT 9SM -SN FEW028 SCT150 M21/M25 A2963 RMK SC2AS1 SLP139
09:00
V
-21 °C 5 mi 3,500 ft 020° 020° 6 kt METAR CYYC 011600Z 02006KT 5SM -SN BKN035 M21/M25 A2964 RMK SN1SC5 /S02/ SLP141
08:35
I
-21 °C 2 mi 5,000 ft 360° 360° 6 kt METAR CYYC 011535Z 36006KT 2SM R35R/3000VP6000FT/N -SN BKN050 M21/M24 A2964 RMK SN2SC4 SLP139
08:00
I
-21 °C 1¼ mi 2,200 ft 360° 360° 5 kt METAR CYYC 011500Z 36005KT 1 1/4SM -SN VV022 M21/M24 A2963 RMK SN8 /S01/ SLP138
07:47
I
-21 °C 1¼ mi 5,000 ft 350° 350° 5 kt SPECI CYYC 011447Z 35005KT 1 1/4SM -SN OVC050 M21/M24 A2964 RMK SN4SC4 SLP139
07:30
I
-21 °C 2 mi 5,000 ft 350° 350° 5 kt METAR CYYC 011430Z 35005KT 2SM -SN OVC050 M21/M25 A2964 RMK SN4SC4 SLP141
07:00
I
-21 °C 3 mi 5,500 ft 360° 360° 7 kt METAR CYYC 011400Z 36007KT 3SM -SN OVC055 M21/M25 A2965 RMK SN5SC3 SLP142
06:00
I
-21 °C 1¼ mi 1,800 ft 350° 350° 9 kt METAR CYYC 011300Z 35009KT 1 1/4SM -SN VV018 M21/M24 A2964 RMK SN8 /S01/ SLP138
05:51
I
-21 °C 1 mi 1,300 ft 360° 360° 8 kt METAR CYYC 011251Z 36008KT 1SM R35L/P6000FT/N R29/P6000FT/N R35R/P6000FT/U -SN VV013 M21/M24 A2964 RMK SN8 SLP139
05:40
I
-21 °C 1 mi 1,400 ft 350° 350° 8 kt METAR CYYC 011240Z 35008KT 1SM R35L/P6000FT/D R29/P6000FT/D R35R/P6000FT/D -SN VV014 M21/M24 A2964 RMK SN8 SLP140
05:19
I
-21 °C 1½ mi 1,500 ft 340° 340° 11 kt METAR CYYC 011219Z 34011KT 1 1/2SM -SN VV015 M21/M24 A2964 RMK SN8 SLP139
05:00
I
-21 °C 3 mi 2,400 ft 330° 330° 9 kt METAR CYYC 011200Z 33009KT 3SM -SN VV024 M21/M25 A2965 RMK SN8 SLP142
04:37
M
-21 °C 4 mi 2,600 ft 350° 350° 11 kt METAR CYYC 011137Z 35011KT 4SM -SN BKN026 OVC039 M21/M25 A2965 RMK SC6SC2 PRESFR SLP140
04:00
V
-21 °C 15 mi 7,600 ft 350° 350° 8 kt METAR CYYC 011100Z 35008KT 15SM SCT028 OVC076 M21/M25 A2966 RMK SC3AC5 DIST SH S/ VIS S 7 PRESFR SLP143
03:00
V
-21 °C 15 mi 10,000 ft 340° 340° 8 kt METAR CYYC 011000Z 34008KT 15SM SCT032 BKN100 BKN160 M21/M24 A2966 RMK SC3AC2AC2 SLP143

We and third parties follow your internet behavior on our website with cookies. If you continue, we assume you agree with our cookie policy.